sensor_id;sensor_type;location;lat;lon;timestamp;temperature;humidity
20714;DHT22;10518;50.742;4.226;2022-10-19T00:00:29;13.50;99.90
20714;DHT22;10518;50.742;4.226;2022-10-19T00:02:54;13.50;99.90
20714;DHT22;10518;50.742;4.226;2022-10-19T00:05:20;13.60;99.90
20714;DHT22;10518;50.742;4.226;2022-10-19T00:07:45;13.30;99.90
20714;DHT22;10518;50.742;4.226;2022-10-19T00:10:11;13.30;99.90
20714;DHT22;10518;50.742;4.226;2022-10-19T00:12:37;13.30;99.90
20714;DHT22;10518;50.742;4.226;2022-10-19T00:15:03;13.30;99.90
20714;DHT22;10518;50.742;4.226;2022-10-19T00:17:29;13.20;99.90
20714;DHT22;10518;50.742;4.226;2022-10-19T00:19:55;13.30;99.90
20714;DHT22;10518;50.742;4.226;2022-10-19T00:22:20;13.60;99.90
20714;DHT22;10518;50.742;4.226;2022-10-19T00:24:46;13.50;99.90
20714;DHT22;10518;50.742;4.226;2022-10-19T00:27:12;13.60;99.90
20714;DHT22;10518;50.742;4.226;2022-10-19T00:29:37;13.70;99.90
20714;DHT22;10518;50.742;4.226;2022-10-19T00:32:03;13.70;99.90
20714;DHT22;10518;50.742;4.226;2022-10-19T00:34:29;13.60;99.90
20714;DHT22;10518;50.742;4.226;2022-10-19T00:36:55;13.40;99.90
20714;DHT22;10518;50.742;4.226;2022-10-19T00:39:20;13.20;99.90
20714;DHT22;10518;50.742;4.226;2022-10-19T00:41:46;13.20;99.90
20714;DHT22;10518;50.742;4.226;2022-10-19T00:46:43;13.10;99.90
20714;DHT22;10518;50.742;4.226;2022-10-19T00:49:17;13.20;99.90
20714;DHT22;10518;50.742;4.226;2022-10-19T00:51:48;13.10;99.90
20714;DHT22;10518;50.742;4.226;2022-10-19T00:54:15;13.30;99.90
20714;DHT22;10518;50.742;4.226;2022-10-19T00:56:43;13.10;99.90
20714;DHT22;10518;50.742;4.226;2022-10-19T00:59:12;13.00;99.90
20714;DHT22;10518;50.742;4.226;2022-10-19T01:01:40;12.90;99.90
20714;DHT22;10518;50.742;4.226;2022-10-19T01:04:07;13.00;99.90
20714;DHT22;10518;50.742;4.226;2022-10-19T01:06:33;12.80;99.90
20714;DHT22;10518;50.742;4.226;2022-10-19T01:09:00;12.70;99.90
20714;DHT22;10518;50.742;4.226;2022-10-19T01:17:31;12.40;99.90
20714;DHT22;10518;50.742;4.226;2022-10-19T01:20:19;12.40;99.90
20714;DHT22;10518;50.742;4.226;2022-10-19T01:28:57;12.30;99.90
20714;DHT22;10518;50.742;4.226;2022-10-19T01:32:01;12.10;99.90
20714;DHT22;10518;50.742;4.226;2022-10-19T01:34:35;11.90;99.90
20714;DHT22;10518;50.742;4.226;2022-10-19T01:37:30;11.80;99.90
20714;DHT22;10518;50.742;4.226;2022-10-19T01:42:45;11.50;99.90
20714;DHT22;10518;50.742;4.226;2022-10-19T01:47:49;11.50;99.90
20714;DHT22;10518;50.742;4.226;2022-10-19T01:50:42;11.50;99.90
20714;DHT22;10518;50.742;4.226;2022-10-19T01:53:11;11.60;99.90
20714;DHT22;10518;50.742;4.226;2022-10-19T01:55:41;11.80;99.90
20714;DHT22;10518;50.742;4.226;2022-10-19T01:58:10;12.00;99.90
20714;DHT22;10518;50.742;4.226;2022-10-19T02:00:38;12.20;99.90
20714;DHT22;10518;50.742;4.226;2022-10-19T02:03:06;12.30;99.90
20714;DHT22;10518;50.742;4.226;2022-10-19T02:05:33;12.40;99.90
20714;DHT22;10518;50.742;4.226;2022-10-19T02:08:04;12.30;99.90
20714;DHT22;10518;50.742;4.226;2022-10-19T02:10:33;12.10;99.90
20714;DHT22;10518;50.742;4.226;2022-10-19T02:13:01;12.20;99.90
20714;DHT22;10518;50.742;4.226;2022-10-19T02:15:28;12.10;99.90
20714;DHT22;10518;50.742;4.226;2022-10-19T02:17:57;12.00;99.90
20714;DHT22;10518;50.742;4.226;2022-10-19T02:20:26;12.00;99.90
20714;DHT22;10518;50.742;4.226;2022-10-19T02:22:52;11.90;99.90
20714;DHT22;10518;50.742;4.226;2022-10-19T02:25:18;11.80;99.90
20714;DHT22;10518;50.742;4.226;2022-10-19T02:27:44;11.70;99.90
20714;DHT22;10518;50.742;4.226;2022-10-19T02:30:15;11.70;99.90
20714;DHT22;10518;50.742;4.226;2022-10-19T02:32:42;11.70;99.90
20714;DHT22;10518;50.742;4.226;2022-10-19T02:35:09;11.70;99.90
20714;DHT22;10518;50.742;4.226;2022-10-19T02:37:36;11.70;99.90
20714;DHT22;10518;50.742;4.226;2022-10-19T02:40:02;11.70;99.90
20714;DHT22;10518;50.742;4.226;2022-10-19T02:42:35;11.60;99.90
20714;DHT22;10518;50.742;4.226;2022-10-19T02:45:16;11.60;99.90
20714;DHT22;10518;50.742;4.226;2022-10-19T02:47:48;11.70;99.90
20714;DHT22;10518;50.742;4.226;2022-10-19T02:50:16;11.60;99.90
20714;DHT22;10518;50.742;4.226;2022-10-19T02:52:43;11.60;99.90
20714;DHT22;10518;50.742;4.226;2022-10-19T02:55:09;11.50;99.90
20714;DHT22;10518;50.742;4.226;2022-10-19T02:57:34;11.50;99.90
20714;DHT22;10518;50.742;4.226;2022-10-19T03:00:00;11.50;99.90
20714;DHT22;10518;50.742;4.226;2022-10-19T03:02:27;11.50;99.90
20714;DHT22;10518;50.742;4.226;2022-10-19T03:04:53;11.40;99.90
20714;DHT22;10518;50.742;4.226;2022-10-19T03:07:20;11.50;99.90
20714;DHT22;10518;50.742;4.226;2022-10-19T03:09:45;11.60;99.90
20714;DHT22;10518;50.742;4.226;2022-10-19T03:12:12;11.80;99.90
20714;DHT22;10518;50.742;4.226;2022-10-19T03:14:38;11.70;99.90
20714;DHT22;10518;50.742;4.226;2022-10-19T03:17:04;11.60;99.90
20714;DHT22;10518;50.742;4.226;2022-10-19T03:19:30;11.60;99.90
20714;DHT22;10518;50.742;4.226;2022-10-19T03:21:56;11.60;99.90
20714;DHT22;10518;50.742;4.226;2022-10-19T03:24:22;11.60;99.90
20714;DHT22;10518;50.742;4.226;2022-10-19T03:26:47;11.60;99.90
20714;DHT22;10518;50.742;4.226;2022-10-19T03:29:13;11.70;99.90
20714;DHT22;10518;50.742;4.226;2022-10-19T03:31:39;11.90;99.90
20714;DHT22;10518;50.742;4.226;2022-10-19T03:34:04;12.00;99.90
20714;DHT22;10518;50.742;4.226;2022-10-19T03:36:32;12.30;99.90
20714;DHT22;10518;50.742;4.226;2022-10-19T03:39:00;12.30;99.90
20714;DHT22;10518;50.742;4.226;2022-10-19T03:41:27;12.30;99.90
20714;DHT22;10518;50.742;4.226;2022-10-19T03:43:53;12.20;99.90
20714;DHT22;10518;50.742;4.226;2022-10-19T03:46:19;12.20;99.90
20714;DHT22;10518;50.742;4.226;2022-10-19T03:48:45;12.30;99.90
20714;DHT22;10518;50.742;4.226;2022-10-19T03:51:14;12.00;99.90
20714;DHT22;10518;50.742;4.226;2022-10-19T03:53:40;11.80;99.90
20714;DHT22;10518;50.742;4.226;2022-10-19T03:56:11;11.90;99.90
20714;DHT22;10518;50.742;4.226;2022-10-19T03:58:38;11.80;99.90
20714;DHT22;10518;50.742;4.226;2022-10-19T04:01:10;11.60;99.90
20714;DHT22;10518;50.742;4.226;2022-10-19T04:03:37;11.60;99.90
20714;DHT22;10518;50.742;4.226;2022-10-19T04:06:16;11.50;99.90
20714;DHT22;10518;50.742;4.226;2022-10-19T04:08:43;11.50;99.90
20714;DHT22;10518;50.742;4.226;2022-10-19T04:11:13;11.50;99.90
20714;DHT22;10518;50.742;4.226;2022-10-19T04:13:39;11.40;99.90
20714;DHT22;10518;50.742;4.226;2022-10-19T04:16:05;11.50;99.90
20714;DHT22;10518;50.742;4.226;2022-10-19T04:18:31;11.50;99.90
20714;DHT22;10518;50.742;4.226;2022-10-19T04:20:59;11.50;99.90
20714;DHT22;10518;50.742;4.226;2022-10-19T04:23:30;11.50;99.90
20714;DHT22;10518;50.742;4.226;2022-10-19T04:26:04;11.40;99.90
20714;DHT22;10518;50.742;4.226;2022-10-19T04:28:30;11.40;99.90
20714;DHT22;10518;50.742;4.226;2022-10-19T04:30:56;11.40;99.90
20714;DHT22;10518;50.742;4.226;2022-10-19T04:33:22;11.30;99.90
20714;DHT22;10518;50.742;4.226;2022-10-19T04:35:48;11.30;99.90
20714;DHT22;10518;50.742;4.226;2022-10-19T04:38:13;11.30;99.90
20714;DHT22;10518;50.742;4.226;2022-10-19T04:40:39;11.30;99.90
20714;DHT22;10518;50.742;4.226;2022-10-19T04:43:05;11.40;99.90
20714;DHT22;10518;50.742;4.226;2022-10-19T04:45:33;11.30;99.90
20714;DHT22;10518;50.742;4.226;2022-10-19T04:47:59;11.30;99.90
20714;DHT22;10518;50.742;4.226;2022-10-19T04:50:25;11.20;99.90
20714;DHT22;10518;50.742;4.226;2022-10-19T04:52:51;11.30;99.90
20714;DHT22;10518;50.742;4.226;2022-10-19T04:55:16;11.20;99.90
20714;DHT22;10518;50.742;4.226;2022-10-19T04:57:42;11.10;99.90
20714;DHT22;10518;50.742;4.226;2022-10-19T05:00:08;11.10;99.90
20714;DHT22;10518;50.742;4.226;2022-10-19T05:02:34;11.10;99.90
20714;DHT22;10518;50.742;4.226;2022-10-19T05:04:59;11.10;99.90
20714;DHT22;10518;50.742;4.226;2022-10-19T05:07:25;11.10;99.90
20714;DHT22;10518;50.742;4.226;2022-10-19T05:09:50;11.10;99.90
20714;DHT22;10518;50.742;4.226;2022-10-19T05:12:16;10.90;99.90
20714;DHT22;10518;50.742;4.226;2022-10-19T05:14:41;10.90;99.90
20714;DHT22;10518;50.742;4.226;2022-10-19T05:17:07;10.90;99.90
20714;DHT22;10518;50.742;4.226;2022-10-19T05:19:33;10.80;99.90
20714;DHT22;10518;50.742;4.226;2022-10-19T05:21:58;10.80;99.90
20714;DHT22;10518;50.742;4.226;2022-10-19T05:24:24;10.90;99.90
20714;DHT22;10518;50.742;4.226;2022-10-19T05:26:49;10.90;99.90
20714;DHT22;10518;50.742;4.226;2022-10-19T05:29:15;11.00;99.90
20714;DHT22;10518;50.742;4.226;2022-10-19T05:31:41;11.00;99.90
20714;DHT22;10518;50.742;4.226;2022-10-19T05:34:07;11.20;99.90
20714;DHT22;10518;50.742;4.226;2022-10-19T05:36:37;11.30;99.90
20714;DHT22;10518;50.742;4.226;2022-10-19T05:39:06;11.30;99.90
20714;DHT22;10518;50.742;4.226;2022-10-19T05:41:31;11.50;99.90
20714;DHT22;10518;50.742;4.226;2022-10-19T05:43:59;11.70;99.90
20714;DHT22;10518;50.742;4.226;2022-10-19T05:46:25;11.70;99.90
20714;DHT22;10518;50.742;4.226;2022-10-19T05:48:52;11.60;99.90
20714;DHT22;10518;50.742;4.226;2022-10-19T05:51:20;11.60;99.90
20714;DHT22;10518;50.742;4.226;2022-10-19T05:53:46;11.50;99.90
20714;DHT22;10518;50.742;4.226;2022-10-19T05:56:14;11.50;99.90
20714;DHT22;10518;50.742;4.226;2022-10-19T05:58:40;11.40;99.90
20714;DHT22;10518;50.742;4.226;2022-10-19T06:01:05;11.50;99.90
20714;DHT22;10518;50.742;4.226;2022-10-19T06:03:32;11.40;99.90
20714;DHT22;10518;50.742;4.226;2022-10-19T06:06:01;11.40;99.90
20714;DHT22;10518;50.742;4.226;2022-10-19T06:08:26;11.30;99.90
20714;DHT22;10518;50.742;4.226;2022-10-19T06:10:52;11.40;99.90
20714;DHT22;10518;50.742;4.226;2022-10-19T06:13:28;11.30;99.90
20714;DHT22;10518;50.742;4.226;2022-10-19T06:15:53;11.20;99.90
20714;DHT22;10518;50.742;4.226;2022-10-19T06:18:19;11.00;99.90
20714;DHT22;10518;50.742;4.226;2022-10-19T06:20:44;10.90;99.90
20714;DHT22;10518;50.742;4.226;2022-10-19T06:23:10;10.90;99.90
20714;DHT22;10518;50.742;4.226;2022-10-19T06:25:36;10.80;99.90
20714;DHT22;10518;50.742;4.226;2022-10-19T06:28:02;10.70;99.90
20714;DHT22;10518;50.742;4.226;2022-10-19T06:30:28;10.70;99.90
20714;DHT22;10518;50.742;4.226;2022-10-19T06:32:53;10.60;99.90
20714;DHT22;10518;50.742;4.226;2022-10-19T06:35:19;10.60;99.90
20714;DHT22;10518;50.742;4.226;2022-10-19T06:37:45;10.60;99.90
20714;DHT22;10518;50.742;4.226;2022-10-19T06:40:11;10.70;99.90
20714;DHT22;10518;50.742;4.226;2022-10-19T06:42:37;10.70;99.90
20714;DHT22;10518;50.742;4.226;2022-10-19T06:45:05;10.80;99.90
20714;DHT22;10518;50.742;4.226;2022-10-19T06:47:33;10.80;99.90
20714;DHT22;10518;50.742;4.226;2022-10-19T06:49:58;10.80;99.90
20714;DHT22;10518;50.742;4.226;2022-10-19T06:52:24;10.90;99.90
20714;DHT22;10518;50.742;4.226;2022-10-19T06:54:49;11.00;99.90
20714;DHT22;10518;50.742;4.226;2022-10-19T06:57:15;11.20;99.90
20714;DHT22;10518;50.742;4.226;2022-10-19T06:59:40;11.20;99.90
20714;DHT22;10518;50.742;4.226;2022-10-19T07:02:06;11.20;99.90
20714;DHT22;10518;50.742;4.226;2022-10-19T07:04:32;11.30;99.90
20714;DHT22;10518;50.742;4.226;2022-10-19T07:06:57;11.20;99.90
20714;DHT22;10518;50.742;4.226;2022-10-19T07:09:23;11.30;99.90
20714;DHT22;10518;50.742;4.226;2022-10-19T07:11:48;11.40;99.90
20714;DHT22;10518;50.742;4.226;2022-10-19T07:14:14;11.40;99.90
20714;DHT22;10518;50.742;4.226;2022-10-19T07:16:39;11.40;99.90
20714;DHT22;10518;50.742;4.226;2022-10-19T07:19:05;11.50;99.90
20714;DHT22;10518;50.742;4.226;2022-10-19T07:21:31;11.60;99.90
20714;DHT22;10518;50.742;4.226;2022-10-19T07:23:56;11.70;99.90
20714;DHT22;10518;50.742;4.226;2022-10-19T07:26:24;11.80;99.90
20714;DHT22;10518;50.742;4.226;2022-10-19T07:28:51;11.70;99.90
20714;DHT22;10518;50.742;4.226;2022-10-19T07:31:20;11.60;99.90
20714;DHT22;10518;50.742;4.226;2022-10-19T07:33:51;11.60;99.90
20714;DHT22;10518;50.742;4.226;2022-10-19T07:36:17;11.70;99.90
20714;DHT22;10518;50.742;4.226;2022-10-19T07:38:43;11.70;99.90
20714;DHT22;10518;50.742;4.226;2022-10-19T07:41:14;11.70;99.90
20714;DHT22;10518;50.742;4.226;2022-10-19T07:43:41;11.80;99.90
20714;DHT22;10518;50.742;4.226;2022-10-19T07:46:20;11.70;99.90
20714;DHT22;10518;50.742;4.226;2022-10-19T07:48:47;11.80;99.90
20714;DHT22;10518;50.742;4.226;2022-10-19T07:51:13;11.90;99.90
20714;DHT22;10518;50.742;4.226;2022-10-19T07:53:40;11.80;99.90
20714;DHT22;10518;50.742;4.226;2022-10-19T07:56:11;11.80;99.90
20714;DHT22;10518;50.742;4.226;2022-10-19T07:58:37;11.90;99.90
20714;DHT22;10518;50.742;4.226;2022-10-19T08:01:08;12.10;99.90
20714;DHT22;10518;50.742;4.226;2022-10-19T08:03:35;12.10;99.90
20714;DHT22;10518;50.742;4.226;2022-10-19T08:06:02;12.10;99.90
20714;DHT22;10518;50.742;4.226;2022-10-19T08:08:28;12.20;99.90
20714;DHT22;10518;50.742;4.226;2022-10-19T08:10:54;12.10;99.90
20714;DHT22;10518;50.742;4.226;2022-10-19T08:13:20;12.10;99.90
20714;DHT22;10518;50.742;4.226;2022-10-19T08:15:45;12.20;99.90
20714;DHT22;10518;50.742;4.226;2022-10-19T08:18:11;12.20;99.90
20714;DHT22;10518;50.742;4.226;2022-10-19T08:20:39;12.20;99.90
20714;DHT22;10518;50.742;4.226;2022-10-19T08:23:05;12.40;99.90
20714;DHT22;10518;50.742;4.226;2022-10-19T08:25:31;12.50;99.90
20714;DHT22;10518;50.742;4.226;2022-10-19T08:27:57;12.60;99.90
20714;DHT22;10518;50.742;4.226;2022-10-19T08:30:22;12.70;99.90
20714;DHT22;10518;50.742;4.226;2022-10-19T08:32:48;13.00;99.90
20714;DHT22;10518;50.742;4.226;2022-10-19T08:35:13;13.00;99.90
20714;DHT22;10518;50.742;4.226;2022-10-19T08:37:39;13.20;99.90
20714;DHT22;10518;50.742;4.226;2022-10-19T08:40:05;13.40;99.90
20714;DHT22;10518;50.742;4.226;2022-10-19T08:50:41;13.30;99.90
20714;DHT22;10518;50.742;4.226;2022-10-19T09:01:46;13.50;99.90
20714;DHT22;10518;50.742;4.226;2022-10-19T09:04:36;13.50;99.90
20714;DHT22;10518;50.742;4.226;2022-10-19T09:07:26;13.20;99.90
20714;DHT22;10518;50.742;4.226;2022-10-19T09:10:02;13.30;99.90
20714;DHT22;10518;50.742;4.226;2022-10-19T09:13:02;13.40;99.90
20714;DHT22;10518;50.742;4.226;2022-10-19T09:15:41;13.30;99.90
20714;DHT22;10518;50.742;4.226;2022-10-19T09:18:15;13.30;99.90
20714;DHT22;10518;50.742;4.226;2022-10-19T09:20:45;13.50;99.90
20714;DHT22;10518;50.742;4.226;2022-10-19T09:25:43;13.60;99.90
20714;DHT22;10518;50.742;4.226;2022-10-19T09:30:51;13.50;99.90
20714;DHT22;10518;50.742;4.226;2022-10-19T09:33:31;13.50;99.90
20714;DHT22;10518;50.742;4.226;2022-10-19T09:35:59;13.60;99.90
20714;DHT22;10518;50.742;4.226;2022-10-19T09:38:27;13.70;99.90
20714;DHT22;10518;50.742;4.226;2022-10-19T09:40:56;13.70;99.90
20714;DHT22;10518;50.742;4.226;2022-10-19T09:43:22;13.80;99.90
20714;DHT22;10518;50.742;4.226;2022-10-19T09:46:11;14.00;99.90
20714;DHT22;10518;50.742;4.226;2022-10-19T09:48:46;14.20;99.90
20714;DHT22;10518;50.742;4.226;2022-10-19T09:51:16;14.30;99.90
20714;DHT22;10518;50.742;4.226;2022-10-19T09:53:46;14.10;99.90
20714;DHT22;10518;50.742;4.226;2022-10-19T09:56:20;14.10;99.90
20714;DHT22;10518;50.742;4.226;2022-10-19T09:58:55;14.20;99.90
20714;DHT22;10518;50.742;4.226;2022-10-19T10:01:38;14.20;99.90
20714;DHT22;10518;50.742;4.226;2022-10-19T10:04:16;14.30;99.90
20714;DHT22;10518;50.742;4.226;2022-10-19T10:06:43;14.10;99.90
20714;DHT22;10518;50.742;4.226;2022-10-19T10:09:21;14.30;99.90
20714;DHT22;10518;50.742;4.226;2022-10-19T10:11:49;14.30;99.90
20714;DHT22;10518;50.742;4.226;2022-10-19T10:16:46;14.40;99.90
20714;DHT22;10518;50.742;4.226;2022-10-19T10:19:14;14.50;99.90
20714;DHT22;10518;50.742;4.226;2022-10-19T10:21:51;14.60;99.90
20714;DHT22;10518;50.742;4.226;2022-10-19T10:24:21;14.70;99.90
20714;DHT22;10518;50.742;4.226;2022-10-19T10:26:49;14.70;99.90
20714;DHT22;10518;50.742;4.226;2022-10-19T10:29:29;14.90;99.90
20714;DHT22;10518;50.742;4.226;2022-10-19T10:32:04;14.90;99.90
20714;DHT22;10518;50.742;4.226;2022-10-19T10:34:43;14.90;99.90
20714;DHT22;10518;50.742;4.226;2022-10-19T10:40:03;15.20;99.90
20714;DHT22;10518;50.742;4.226;2022-10-19T10:42:35;15.20;99.90
20714;DHT22;10518;50.742;4.226;2022-10-19T10:45:28;15.20;99.90
20714;DHT22;10518;50.742;4.226;2022-10-19T10:47:56;15.30;99.90
20714;DHT22;10518;50.742;4.226;2022-10-19T10:50:33;15.50;99.90
20714;DHT22;10518;50.742;4.226;2022-10-19T10:53:06;15.60;99.90
20714;DHT22;10518;50.742;4.226;2022-10-19T10:55:54;15.60;99.90
20714;DHT22;10518;50.742;4.226;2022-10-19T10:58:35;15.60;99.90
20714;DHT22;10518;50.742;4.226;2022-10-19T11:01:07;15.60;99.90
20714;DHT22;10518;50.742;4.226;2022-10-19T11:03:43;15.50;99.90
20714;DHT22;10518;50.742;4.226;2022-10-19T11:06:11;15.50;99.90
20714;DHT22;10518;50.742;4.226;2022-10-19T11:08:53;15.50;99.90
20714;DHT22;10518;50.742;4.226;2022-10-19T11:11:29;15.50;99.90
20714;DHT22;10518;50.742;4.226;2022-10-19T11:14:29;15.60;99.90
20714;DHT22;10518;50.742;4.226;2022-10-19T11:16:58;15.70;99.90
20714;DHT22;10518;50.742;4.226;2022-10-19T11:19:40;15.80;99.90
20714;DHT22;10518;50.742;4.226;2022-10-19T11:28:14;16.10;99.90
20714;DHT22;10518;50.742;4.226;2022-10-19T11:39:34;16.40;99.90
20714;DHT22;10518;50.742;4.226;2022-10-19T11:42:15;16.30;99.90
20714;DHT22;10518;50.742;4.226;2022-10-19T11:48:11;16.50;99.90
20714;DHT22;10518;50.742;4.226;2022-10-19T11:50:57;16.50;99.90
20714;DHT22;10518;50.742;4.226;2022-10-19T11:56:29;16.90;99.90
20714;DHT22;10518;50.742;4.226;2022-10-19T12:02:18;16.70;99.90
20714;DHT22;10518;50.742;4.226;2022-10-19T12:13:04;17.00;99.90
20714;DHT22;10518;50.742;4.226;2022-10-19T12:15:41;17.00;99.90
20714;DHT22;10518;50.742;4.226;2022-10-19T12:18:42;17.20;99.90
20714;DHT22;10518;50.742;4.226;2022-10-19T12:21:57;17.40;99.90
20714;DHT22;10518;50.742;4.226;2022-10-19T12:24:05;17.30;99.90
20714;DHT22;10518;50.742;4.226;2022-10-19T12:26:35;17.10;99.90
20714;DHT22;10518;50.742;4.226;2022-10-19T12:29:11;17.00;99.90
20714;DHT22;10518;50.742;4.226;2022-10-19T12:31:38;17.10;99.90
20714;DHT22;10518;50.742;4.226;2022-10-19T12:39:52;17.20;99.90
20714;DHT22;10518;50.742;4.226;2022-10-19T12:47:26;17.20;99.90
20714;DHT22;10518;50.742;4.226;2022-10-19T12:49:53;17.10;99.90
20714;DHT22;10518;50.742;4.226;2022-10-19T12:52:45;17.20;99.90
20714;DHT22;10518;50.742;4.226;2022-10-19T12:57:47;17.30;99.90
20714;DHT22;10518;50.742;4.226;2022-10-19T13:00:29;17.40;99.90
20714;DHT22;10518;50.742;4.226;2022-10-19T13:03:13;17.50;99.90
20714;DHT22;10518;50.742;4.226;2022-10-19T13:05:40;17.50;99.90
20714;DHT22;10518;50.742;4.226;2022-10-19T13:08:06;17.30;99.90
20714;DHT22;10518;50.742;4.226;2022-10-19T13:10:32;17.40;99.90
20714;DHT22;10518;50.742;4.226;2022-10-19T13:12:59;17.30;99.90
20714;DHT22;10518;50.742;4.226;2022-10-19T13:18:04;17.40;99.90
20714;DHT22;10518;50.742;4.226;2022-10-19T13:46:25;17.70;99.90
20714;DHT22;10518;50.742;4.226;2022-10-19T13:51:59;17.70;99.90
20714;DHT22;10518;50.742;4.226;2022-10-19T14:00:20;17.80;99.90
20714;DHT22;10518;50.742;4.226;2022-10-19T14:11:30;17.70;99.90
20714;DHT22;10518;50.742;4.226;2022-10-19T14:14:13;17.70;99.90
20714;DHT22;10518;50.742;4.226;2022-10-19T14:16:58;17.60;99.90
20714;DHT22;10518;50.742;4.226;2022-10-19T14:19:29;17.70;99.90
20714;DHT22;10518;50.742;4.226;2022-10-19T14:22:00;17.80;99.90
20714;DHT22;10518;50.742;4.226;2022-10-19T14:24:34;17.80;99.90
20714;DHT22;10518;50.742;4.226;2022-10-19T14:27:01;17.80;99.90
20714;DHT22;10518;50.742;4.226;2022-10-19T14:29:28;17.80;99.90
20714;DHT22;10518;50.742;4.226;2022-10-19T14:31:57;17.70;99.90
20714;DHT22;10518;50.742;4.226;2022-10-19T14:34:23;17.80;99.90
20714;DHT22;10518;50.742;4.226;2022-10-19T14:36:49;17.80;99.90
20714;DHT22;10518;50.742;4.226;2022-10-19T14:39:27;17.60;99.90
20714;DHT22;10518;50.742;4.226;2022-10-19T14:41:53;17.50;99.90
20714;DHT22;10518;50.742;4.226;2022-10-19T14:46:53;17.40;99.90
20714;DHT22;10518;50.742;4.226;2022-10-19T14:49:19;17.40;99.90
20714;DHT22;10518;50.742;4.226;2022-10-19T14:51:51;17.30;99.90
20714;DHT22;10518;50.742;4.226;2022-10-19T14:54:33;17.30;99.90
20714;DHT22;10518;50.742;4.226;2022-10-19T14:57:08;17.30;99.90
20714;DHT22;10518;50.742;4.226;2022-10-19T14:59:43;17.20;99.90
20714;DHT22;10518;50.742;4.226;2022-10-19T15:02:20;17.20;99.90
20714;DHT22;10518;50.742;4.226;2022-10-19T15:04:47;17.30;99.90
20714;DHT22;10518;50.742;4.226;2022-10-19T15:07:24;17.30;99.90
20714;DHT22;10518;50.742;4.226;2022-10-19T15:09:56;17.20;99.90
20714;DHT22;10518;50.742;4.226;2022-10-19T15:12:33;17.20;99.90
20714;DHT22;10518;50.742;4.226;2022-10-19T15:15:00;17.20;99.90
20714;DHT22;10518;50.742;4.226;2022-10-19T15:17:30;17.10;99.90
20714;DHT22;10518;50.742;4.226;2022-10-19T15:19:58;17.30;99.90
20714;DHT22;10518;50.742;4.226;2022-10-19T15:24:59;17.30;99.90
20714;DHT22;10518;50.742;4.226;2022-10-19T15:27:37;17.20;99.90
20714;DHT22;10518;50.742;4.226;2022-10-19T15:32:32;17.20;99.90
20714;DHT22;10518;50.742;4.226;2022-10-19T15:37:34;17.10;99.90
20714;DHT22;10518;50.742;4.226;2022-10-19T15:40:08;17.20;99.90
20714;DHT22;10518;50.742;4.226;2022-10-19T15:45:25;17.10;99.90
20714;DHT22;10518;50.742;4.226;2022-10-19T15:50:45;17.00;99.90
20714;DHT22;10518;50.742;4.226;2022-10-19T15:53:18;16.90;99.90
20714;DHT22;10518;50.742;4.226;2022-10-19T15:55:44;16.80;99.90
20714;DHT22;10518;50.742;4.226;2022-10-19T15:58:10;16.80;99.90
20714;DHT22;10518;50.742;4.226;2022-10-19T16:00:37;16.80;99.90
20714;DHT22;10518;50.742;4.226;2022-10-19T16:03:03;16.80;99.90
20714;DHT22;10518;50.742;4.226;2022-10-19T16:05:29;16.80;99.90
20714;DHT22;10518;50.742;4.226;2022-10-19T16:07:55;17.00;99.90
20714;DHT22;10518;50.742;4.226;2022-10-19T16:10:23;16.80;99.90
20714;DHT22;10518;50.742;4.226;2022-10-19T16:12:49;16.70;99.90
20714;DHT22;10518;50.742;4.226;2022-10-19T16:15:18;16.60;99.90
20714;DHT22;10518;50.742;4.226;2022-10-19T16:17:49;16.50;99.90
20714;DHT22;10518;50.742;4.226;2022-10-19T16:20:16;16.30;99.90
20714;DHT22;10518;50.742;4.226;2022-10-19T16:22:42;16.20;99.90
20714;DHT22;10518;50.742;4.226;2022-10-19T16:25:09;16.30;99.90
20714;DHT22;10518;50.742;4.226;2022-10-19T16:27:35;16.30;99.90
20714;DHT22;10518;50.742;4.226;2022-10-19T16:30:00;16.30;99.90
20714;DHT22;10518;50.742;4.226;2022-10-19T16:32:26;16.20;99.90
20714;DHT22;10518;50.742;4.226;2022-10-19T16:34:51;16.00;99.90
20714;DHT22;10518;50.742;4.226;2022-10-19T16:37:17;15.90;99.90
20714;DHT22;10518;50.742;4.226;2022-10-19T16:39:42;16.00;99.90
20714;DHT22;10518;50.742;4.226;2022-10-19T16:42:08;15.90;99.90
20714;DHT22;10518;50.742;4.226;2022-10-19T16:44:33;15.90;99.90
20714;DHT22;10518;50.742;4.226;2022-10-19T16:46:59;16.00;99.90
20714;DHT22;10518;50.742;4.226;2022-10-19T16:49:25;15.90;99.90
20714;DHT22;10518;50.742;4.226;2022-10-19T16:51:51;16.10;99.90
20714;DHT22;10518;50.742;4.226;2022-10-19T16:54:17;16.20;99.90
20714;DHT22;10518;50.742;4.226;2022-10-19T16:56:44;16.00;99.90
20714;DHT22;10518;50.742;4.226;2022-10-19T16:59:12;15.90;99.90
20714;DHT22;10518;50.742;4.226;2022-10-19T17:01:39;15.90;99.90
20714;DHT22;10518;50.742;4.226;2022-10-19T17:04:04;15.90;99.90
20714;DHT22;10518;50.742;4.226;2022-10-19T17:06:32;15.80;99.90
20714;DHT22;10518;50.742;4.226;2022-10-19T17:08:58;15.70;99.90
20714;DHT22;10518;50.742;4.226;2022-10-19T17:11:32;15.60;99.90
20714;DHT22;10518;50.742;4.226;2022-10-19T17:14:01;15.60;99.90
20714;DHT22;10518;50.742;4.226;2022-10-19T17:16:29;15.50;99.90
20714;DHT22;10518;50.742;4.226;2022-10-19T17:18:56;15.40;99.90
20714;DHT22;10518;50.742;4.226;2022-10-19T17:21:24;15.50;99.90
20714;DHT22;10518;50.742;4.226;2022-10-19T17:23:52;15.40;99.90
20714;DHT22;10518;50.742;4.226;2022-10-19T17:26:18;15.30;99.90
20714;DHT22;10518;50.742;4.226;2022-10-19T17:28:48;15.30;99.90
20714;DHT22;10518;50.742;4.226;2022-10-19T17:31:14;15.30;99.90
20714;DHT22;10518;50.742;4.226;2022-10-19T17:33:40;15.40;99.90
20714;DHT22;10518;50.742;4.226;2022-10-19T17:38:34;15.20;99.90
20714;DHT22;10518;50.742;4.226;2022-10-19T17:41:02;15.50;99.90
20714;DHT22;10518;50.742;4.226;2022-10-19T17:43:28;15.50;99.90
20714;DHT22;10518;50.742;4.226;2022-10-19T17:45:58;15.30;99.90
20714;DHT22;10518;50.742;4.226;2022-10-19T17:48:24;15.40;99.90
20714;DHT22;10518;50.742;4.226;2022-10-19T17:51:17;15.40;99.90
20714;DHT22;10518;50.742;4.226;2022-10-19T17:53:44;15.30;99.90
20714;DHT22;10518;50.742;4.226;2022-10-19T17:56:13;15.40;99.90
20714;DHT22;10518;50.742;4.226;2022-10-19T17:58:39;15.30;99.90
20714;DHT22;10518;50.742;4.226;2022-10-19T18:01:05;15.30;99.90
20714;DHT22;10518;50.742;4.226;2022-10-19T18:03:33;15.20;99.90
20714;DHT22;10518;50.742;4.226;2022-10-19T18:08:30;15.10;99.90
20714;DHT22;10518;50.742;4.226;2022-10-19T18:11:02;15.20;99.90
20714;DHT22;10518;50.742;4.226;2022-10-19T18:13:28;15.20;99.90
20714;DHT22;10518;50.742;4.226;2022-10-19T18:16:04;15.30;99.90
20714;DHT22;10518;50.742;4.226;2022-10-19T18:18:33;15.10;99.90
20714;DHT22;10518;50.742;4.226;2022-10-19T18:21:03;15.10;99.90
20714;DHT22;10518;50.742;4.226;2022-10-19T18:23:29;15.20;99.90